Muonio, Finland

9:41 AM EET on December 09, 2016 (GMT +0200)
Enontekio | | Change Station

Elev 1004 ft 68.36 °N, 23.42 °E | Updated 21 minutes ago

Partly Cloudy
Partly Cloudy
19 °F
Feels Like 6 °F
N
14
Wind Variable Wind from NW

Today
High -- | Low -- °F
--% Chance of Precip.
Yesterday
High -- | Low -- °F
Precip. -- in
Pressure 29.27 in
Visibility 6.2 miles
Clouds Few 900 ft
Scattered Clouds 4200 ft
Mostly Cloudy 7200 ft
Windchill 6 °F
Dew Point 14 °F
Humidity 80%
Rainfall 0.00 in
Snow Depth Not available.
11:45 AM 12:50 PM
Waxing Gibbous, 71% visible
METAR EFET 090720Z AUTO 31012KT 9999 -SHSN FEW009 SCT042 BKN072 M07/M10 Q0991
Pressure 29.27 in
Visibility 6.2 miles
Clouds Few 900 ft
Scattered Clouds 4200 ft
Mostly Cloudy 7200 ft
Windchill 6 °F
Dew Point 14 °F
Humidity 80%
Rainfall 0.00 in
Snow Depth Not available.
11:45 AM 12:50 PM
Waxing Gibbous, 71% visible
METAR EFET 090720Z AUTO 31012KT 9999 -SHSN FEW009 SCT042 BKN072 M07/M10 Q0991

10-Day Weather Forecast

×

Almanac

Astronomy

Dec. 09, 2016 Rise Set
Actual Time
Civil Twilight
Nautical Twilight
Astronomical Twilight
Moon
Length of Visible Light
Length of Day
Tomorrow will be .
, % of the Moon is Illuminated

Today's Extremes

Country Highs Country Lows

Community

WunderPhotos

Upload Photos

1,956,374 photos uploaded!

WunderBlog® & News

Nearby

Air Quality

  Air Quality AQ Index Pollutant
Not available.

Snow Depth

Station Depth Elevation

Earthquake Activity

City Distance Mag. Time & Date
Minimum magnitude displayed is 2.5.

Coastal Water Temperatures

Place Temperature

Stations

Nearby Weather Stations

Station Location Temp. Windchill Dew Point Humidity Wind Precip. Elev Updated Type